EDT,Max TemperatureF,Mean TemperatureF,Min TemperatureF,Max Dew PointF,MeanDew PointF,Min DewpointF,Max Humidity, Mean Humidity, Min Humidity, Max Sea Level PressureIn, Mean Sea Level PressureIn, Min Sea Level PressureIn, Max VisibilityMiles, Mean VisibilityMiles, Min VisibilityMiles, Max Wind SpeedMPH, Mean Wind SpeedMPH, Max Gust SpeedMPH,PrecipitationIn, CloudCover, Events, WindDirDegrees
2012-9-1,90,78,68,67,63,58,84,62,38,30.05,30.02,29.98,10,9,5,14,5,18,0.00,0,,301
2012-9-2,78,72,66,72,69,63,100,87,73,30.07,30.04,30.00,10,4,1,9,4,,0.13,7,Rain,88
2012-9-3,75,73,71,72,70,68,94,90,84,30.08,30.05,30.02,10,6,2,12,5,,0.07,7,Rain,99
2012-9-4,84,78,71,74,71,68,100,88,65,30.06,29.98,29.83,10,4,1,23,6,30,2.71,7,Rain,130
2012-9-5,82,76,68,72,69,64,87,77,60,29.87,29.83,29.80,10,10,10,10,7,21,0.00,5,,272
2012-9-6,82,74,66,70,66,64,93,80,62,29.93,29.89,29.86,10,9,6,8,2,,0.00,2,Rain,154
2012-9-7,88,77,66,71,67,64,94,75,45,29.94,29.90,29.83,10,8,3,10,3,,0.00,2,Thunderstorm,217
2012-9-8,84,73,64,70,66,59,94,83,62,29.85,29.72,29.61,10,7,0,37,6,55,0.66,6,Fog-Rain-Thunderstorm,215
2012-9-9,75,65,55,58,54,51,93,70,45,29.96,29.87,29.83,10,10,10,13,5,,0.01,1,,296
2012-9-10,72,60,51,53,48,43,93,66,39,30.17,30.06,29.96,10,10,10,14,7,24,0.00,1,,317
2012-9-11,75,60,45,51,47,43,93,65,38,30.31,30.26,30.18,10,10,10,8,2,,0.00,0,,281
2012-9-12,79,63,48,54,51,47,93,67,39,30.38,30.33,30.30,10,9,5,8,1,,0.00,0,,134
2012-9-13,79,65,51,58,53,48,100,75,39,30.39,30.34,30.28,10,7,1,7,1,,0.00,0,,182
2012-9-14,80,66,52,61,55,50,94,73,44,30.29,30.20,30.11,10,8,2,9,2,,0.00,0,,209
2012-9-15,73,63,54,60,49,46,87,61,41,30.22,30.16,30.12,10,10,10,17,8,24,0.00,2,,332
2012-9-16,72,60,48,52,47,38,93,65,30,30.16,30.12,30.07,10,10,5,13,3,,0.00,1,,294
2012-9-17,75,60,48,61,52,45,93,72,42,30.14,30.07,29.98,10,9,2,12,3,,0.00,2,,170
2012-9-18,75,68,62,70,66,60,100,92,81,29.96,29.74,29.56,10,6,0,20,9,34,1.67,8,Fog-Rain-Thunderstorm,179
2012-9-19,68,58,50,59,47,40,93,67,37,30.18,30.05,29.83,10,10,7,13,8,20,0.07,3,Rain,324
2012-9-20,72,58,45,51,48,43,93,73,45,30.20,30.14,30.08,10,10,7,8,1,,0.00,0,,140
2012-9-21,75,60,48,58,54,47,93,76,57,30.09,30.04,29.98,10,9,5,13,4,,0.00,0,,135
2012-9-22,81,70,60,66,60,53,94,77,52,29.96,29.87,29.77,10,9,2,12,8,18,0.05,5,Rain,187
2012-9-23,64,56,48,47,42,38,80,60,40,30.16,30.08,29.93,10,10,10,14,9,24,0.00,2,,297
2012-9-24,64,54,44,46,41,37,90,65,40,30.23,30.17,30.13,10,10,10,12,5,23,0.00,2,,270
2012-9-25,71,55,39,55,46,37,89,68,39,30.20,30.14,30.09,10,10,5,14,2,20,0.00,0,,165
2012-9-26,75,68,62,62,59,54,90,73,58,30.10,30.07,30.03,10,10,8,13,6,20,0.01,4,Rain,232
2012-9-27,73,67,61,63,62,60,97,88,64,30.18,30.14,30.08,9,4,1,7,3,,0.48,6,Rain,216
2012-9-28,75,66,57,64,61,50,100,85,57,30.11,30.04,29.95,10,4,0,9,3,,0.12,6,Fog-Rain,261
2012-9-29,64,58,53,52,49,47,88,73,58,29.99,29.96,29.91,10,10,10,12,7,16,0.00,6,,322
2012-9-30,66,57,48,50,48,46,93,77,49,29.91,29.86,29.82,10,9,4,13,6,23,0.00,2,Rain,270